Terminal Aerodrome Forecast
Issued by NWS

Home | Current Version | Previous Version | Text Only | Print | Product List | Glossary On
Versions: 1 2 3 4 5 6 7 8 9 10 11 12 13 14 15
000
FTUS43 KIND 041100
TAFLAF
TAF
KLAF 041125Z 0412/0512 00000KT 3SM BR SKC
     FM041300 02005KT P6SM SCT250
     FM041500 32005KT P6SM SCT040
     FM050000 VRB02KT P6SM SKC
      TEMPO 0509/0512 3SM BR
      AMD LTD TO CLD VIS AND WIND TIL 041300=

USA.gov is the U.S. government's official web portal to all federal, state and local government web resources and services.